Time;durP1;ratioP1;P1;durP2;ratioP2;P2;SDS_P1;SDS_P2;PMS_P1;PMS_P2;Temp;Humidity;BMP_temperature;BMP_pressure;BME280_temperature;BME280_humidity;BME280_pressure;Samples;Min_cycle;Max_cycle;Signal;HPM_P1;HPM_P2
2021/12/19 00:01:35;;;;;;;29.27;15.05;;;;;;;;;;4967444;28;20349;-81
2021/12/19 00:09:31;;;;;;;31.20;15.80;;;;;;;;;;4968193;29;20239;-81
2021/12/19 00:11:59;;;;;;;28.15;15.27;;;;;;;;;;4967424;29;20216;-81
2021/12/19 00:14:25;;;;;;;35.50;17.63;;;;;;;;;;4968243;29;20177;-81
2021/12/19 00:16:51;;;;;;;27.85;15.38;;;;;;;;;;4965370;28;20185;-82
2021/12/19 00:19:18;;;;;;;31.13;15.88;;;;;;;;;;4950544;29;20185;-82
2021/12/19 00:21:44;;;;;;;31.30;16.23;;;;;;;;;;4965170;29;20192;-81
2021/12/19 00:24:10;;;;;;;28.58;15.27;;;;;;;;;;4963468;29;20196;-81
2021/12/19 00:26:37;;;;;;;27.83;15.52;;;;;;;;;;4967867;29;20533;-80
2021/12/19 00:29:03;;;;;;;29.95;16.58;;;;;;;;;;4965425;28;20626;-81
2021/12/19 00:31:30;;;;;;;29.98;15.35;;;;;;;;;;4947329;29;20218;-82
2021/12/19 00:33:56;;;;;;;24.88;12.98;;;;;;;;;;4964726;28;20230;-81
2021/12/19 00:36:22;;;;;;;28.15;14.43;;;;;;;;;;4965787;29;20204;-81
2021/12/19 00:38:48;;;;;;;28.05;15.52;;;;;;;;;;4968870;29;20179;-82
2021/12/19 00:41:14;;;;;;;27.30;15.20;;;;;;;;;;4948091;29;20192;-84
2021/12/19 00:46:10;;;;;;;24.88;16.45;;;;;;;;;;4969494;28;20196;-81
2021/12/19 00:48:37;;;;;;;30.42;14.95;;;;;;;;;;4954986;29;20195;-81
2021/12/19 00:51:04;;;;;;;28.52;13.15;;;;;;;;;;4950231;28;20705;-82
2021/12/19 00:53:30;;;;;;;29.17;15.13;;;;;;;;;;4966357;29;20247;-82
2021/12/19 00:55:57;;;;;;;30.10;14.35;;;;;;;;;;4964952;29;20196;-83
2021/12/19 00:58:23;;;;;;;27.48;13.57;;;;;;;;;;4964530;28;20242;-83
2021/12/19 01:00:49;;;;;;;25.77;13.13;;;;;;;;;;4963996;28;20275;-82
2021/12/19 01:03:15;;;;;;;32.33;14.35;;;;;;;;;;4964926;29;20196;-82
2021/12/19 01:05:42;;;;;;;30.90;13.90;;;;;;;;;;4967775;29;20220;-80
2021/12/19 01:08:08;;;;;;;27.83;13.73;;;;;;;;;;4964345;29;20650;-81
2021/12/19 01:10:36;;;;;;;26.65;14.57;;;;;;;;;;4941803;29;20186;-81
2021/12/19 01:13:02;;;;;;;30.88;15.45;;;;;;;;;;4954967;28;20709;-82
2021/12/19 01:15:29;;;;;;;24.75;12.80;;;;;;;;;;4948878;29;20168;-82
2021/12/19 01:17:55;;;;;;;28.95;15.30;;;;;;;;;;4966111;28;20184;-81
2021/12/19 01:20:23;;;;;;;31.10;16.10;;;;;;;;;;4950585;29;20605;-82
2021/12/19 01:22:49;;;;;;;27.35;13.95;;;;;;;;;;4946951;29;20211;-82
2021/12/19 01:25:17;;;;;;;23.85;13.25;;;;;;;;;;4949692;29;20216;-81
2021/12/19 01:27:43;;;;;;;26.05;13.93;;;;;;;;;;4964370;28;20184;-80
2021/12/19 01:30:10;;;;;;;25.45;14.60;;;;;;;;;;4966287;28;28547;-84
2021/12/19 01:32:37;;;;;;;31.00;14.70;;;;;;;;;;4948575;29;20200;-84
2021/12/19 01:35:04;;;;;;;30.75;15.77;;;;;;;;;;4963792;28;20192;-82
2021/12/19 01:37:30;;;;;;;27.38;14.40;;;;;;;;;;4962451;29;20180;-82
2021/12/19 01:39:56;;;;;;;30.50;15.45;;;;;;;;;;4953844;28;20189;-83
2021/12/19 01:42:22;;;;;;;25.23;14.55;;;;;;;;;;4948712;29;20188;-81
2021/12/19 01:44:48;;;;;;;24.85;12.93;;;;;;;;;;4967665;29;20176;-83
2021/12/19 01:47:14;;;;;;;27.58;14.43;;;;;;;;;;4962386;29;20661;-82
2021/12/19 01:49:41;;;;;;;29.20;13.27;;;;;;;;;;4964019;29;20188;-83
2021/12/19 01:52:07;;;;;;;25.60;14.18;;;;;;;;;;4946378;29;20214;-81
2021/12/19 01:54:33;;;;;;;26.95;14.55;;;;;;;;;;4963695;29;20213;-82
2021/12/19 01:56:59;;;;;;;25.95;13.43;;;;;;;;;;4966505;28;20176;-84
2021/12/19 01:59:25;;;;;;;25.38;13.13;;;;;;;;;;4964801;29;20192;-83
2021/12/19 02:01:52;;;;;;;28.27;13.88;;;;;;;;;;4962079;28;20199;-82
2021/12/19 02:04:19;;;;;;;26.75;12.95;;;;;;;;;;4943993;29;20203;-82
2021/12/19 02:06:45;;;;;;;25.48;12.38;;;;;;;;;;4949256;29;20642;-82
2021/12/19 02:09:11;;;;;;;25.08;13.23;;;;;;;;;;4959833;28;20195;-82
2021/12/19 02:11:38;;;;;;;25.17;13.43;;;;;;;;;;4948270;28;20219;-82
2021/12/19 02:14:05;;;;;;;24.30;13.40;;;;;;;;;;4947951;29;20188;-81
2021/12/19 02:16:31;;;;;;;25.67;13.50;;;;;;;;;;4947551;29;20188;-82
2021/12/19 02:18:59;;;;;;;21.17;11.52;;;;;;;;;;4959964;28;20241;-83
2021/12/19 02:21:26;;;;;;;26.95;12.88;;;;;;;;;;4963315;29;20547;-82
2021/12/19 02:23:52;;;;;;;26.70;13.52;;;;;;;;;;4949023;28;20172;-83
2021/12/19 02:26:18;;;;;;;29.38;14.13;;;;;;;;;;4948834;29;20191;-80
2021/12/19 02:28:44;;;;;;;24.95;13.52;;;;;;;;;;4963275;29;20240;-80
2021/12/19 02:31:10;;;;;;;25.08;11.90;;;;;;;;;;4960753;29;20654;-80
2021/12/19 02:33:41;;;;;;;25.55;11.75;;;;;;;;;;4948257;29;20559;-80
2021/12/19 02:49:20;;;;;;;19.38;11.25;;;;;;;;;;4962491;28;20247;-81
2021/12/19 02:51:46;;;;;;;21.83;10.38;;;;;;;;;;4951974;28;20215;-80
2021/12/19 02:54:12;;;;;;;18.20;9.75;;;;;;;;;;4964661;28;20192;-82
2021/12/19 02:56:38;;;;;;;19.95;11.32;;;;;;;;;;4964004;29;20172;-82
2021/12/19 02:59:04;;;;;;;22.70;11.38;;;;;;;;;;4943927;29;20208;-80
2021/12/19 03:01:30;;;;;;;24.38;11.88;;;;;;;;;;4956665;29;20532;-82
2021/12/19 03:03:56;;;;;;;24.60;12.60;;;;;;;;;;4962416;28;20231;-81
2021/12/19 03:06:22;;;;;;;26.90;11.55;;;;;;;;;;4962574;29;20308;-80
2021/12/19 03:08:51;;;;;;;21.80;12.13;;;;;;;;;;4965976;29;20251;-81
2021/12/19 03:19:19;;;;;;;19.42;11.20;;;;;;;;;;4962349;29;20207;-80
2021/12/19 03:21:45;;;;;;;24.45;10.88;;;;;;;;;;4945261;29;20188;-82
2021/12/19 03:24:11;;;;;;;19.98;12.95;;;;;;;;;;4945888;28;20208;-82
2021/12/19 03:26:37;;;;;;;21.25;12.00;;;;;;;;;;4963685;29;20233;-82
2021/12/19 03:29:10;;;;;;;19.33;10.45;;;;;;;;;;4962105;28;20239;-81
2021/12/19 03:31:36;;;;;;;19.55;10.80;;;;;;;;;;4961357;28;20211;-81
2021/12/19 03:34:03;;;;;;;19.48;10.32;;;;;;;;;;4960940;28;20220;-82
2021/12/19 03:36:30;;;;;;;19.00;10.75;;;;;;;;;;4947758;29;20208;-81
2021/12/19 03:39:03;;;;;;;24.17;11.23;;;;;;;;;;4964966;29;20175;-82
2021/12/19 03:41:35;;;;;;;17.83;9.30;;;;;;;;;;4950440;29;20254;-80
2021/12/19 03:44:03;;;;;;;22.70;11.13;;;;;;;;;;4958261;28;20200;-81
2021/12/19 03:46:29;;;;;;;27.27;11.35;;;;;;;;;;4946943;29;20278;-82
2021/12/19 03:48:55;;;;;;;22.42;12.75;;;;;;;;;;4962416;28;20207;-80
2021/12/19 03:51:21;;;;;;;23.35;12.60;;;;;;;;;;4961975;29;20185;-80
2021/12/19 03:53:47;;;;;;;21.67;10.95;;;;;;;;;;4948498;29;20746;-82
2021/12/19 03:56:13;;;;;;;22.05;10.93;;;;;;;;;;4963258;29;20380;-82
2021/12/19 03:58:39;;;;;;;18.30;11.00;;;;;;;;;;4961859;28;20180;-83
2021/12/19 04:01:07;;;;;;;21.25;11.77;;;;;;;;;;4962095;28;20188;-82
2021/12/19 04:03:34;;;;;;;19.85;11.73;;;;;;;;;;4945665;29;20177;-81
2021/12/19 04:06:00;;;;;;;21.13;11.23;;;;;;;;;;4968651;28;20221;-82
2021/12/19 04:08:26;;;;;;;15.68;9.40;;;;;;;;;;4965670;29;20184;-81
2021/12/19 04:10:53;;;;;;;20.50;10.25;;;;;;;;;;4962273;29;20199;-81
2021/12/19 04:13:19;;;;;;;17.73;9.80;;;;;;;;;;4961739;28;20248;-81
2021/12/19 04:15:47;;;;;;;18.10;10.52;;;;;;;;;;4944139;29;20192;-80
2021/12/19 04:18:13;;;;;;;25.55;12.38;;;;;;;;;;4962675;29;20186;-81
2021/12/19 04:20:40;;;;;;;21.23;10.60;;;;;;;;;;4964622;29;20177;-81
2021/12/19 04:23:06;;;;;;;20.27;10.02;;;;;;;;;;4934820;29;20252;-80
2021/12/19 04:25:32;;;;;;;16.95;9.27;;;;;;;;;;4946376;29;20281;-81
2021/12/19 04:27:58;;;;;;;17.48;9.93;;;;;;;;;;4961676;28;20188;-82
2021/12/19 04:30:26;;;;;;;18.48;10.15;;;;;;;;;;4957623;29;20195;-81
2021/12/19 04:33:05;;;;;;;14.88;9.82;;;;;;;;;;4946968;28;20208;-82
2021/12/19 04:35:34;;;;;;;20.17;12.10;;;;;;;;;;4946326;29;20179;-80
2021/12/19 04:40:39;;;;;;;19.35;10.77;;;;;;;;;;4964278;28;20581;-82
2021/12/19 04:54:47;;;;;;;19.48;10.13;;;;;;;;;;4959075;28;20184;-82
2021/12/19 05:00:04;;;;;;;16.75;9.82;;;;;;;;;;4966913;28;20187;-80
2021/12/19 05:05:21;;;;;;;17.33;9.68;;;;;;;;;;4964674;29;20295;-82
2021/12/19 05:16:01;;;;;;;15.38;8.57;;;;;;;;;;4963601;28;20191;-80
2021/12/19 05:18:31;;;;;;;14.98;9.80;;;;;;;;;;4963953;28;20177;-79
2021/12/19 05:21:05;;;;;;;17.77;9.13;;;;;;;;;;4949757;29;20177;-80
2021/12/19 05:25:57;;;;;;;16.70;8.93;;;;;;;;;;4961608;28;20229;-82
2021/12/19 05:28:23;;;;;;;16.10;8.90;;;;;;;;;;4956142;28;20188;-81
2021/12/19 05:30:49;;;;;;;18.00;8.98;;;;;;;;;;4963800;29;20207;-79
2021/12/19 05:33:15;;;;;;;17.90;8.38;;;;;;;;;;4964691;28;20208;-82
2021/12/19 05:46:38;;;;;;;17.00;9.00;;;;;;;;;;4962458;28;20196;-82
2021/12/19 05:49:04;;;;;;;19.95;10.70;;;;;;;;;;4964124;29;20224;-81
2021/12/19 05:51:30;;;;;;;17.35;9.52;;;;;;;;;;4961038;28;20193;-82
2021/12/19 05:53:56;;;;;;;16.00;8.82;;;;;;;;;;4965705;28;20202;-81
2021/12/19 05:56:22;;;;;;;15.20;8.48;;;;;;;;;;4965193;29;20177;-82
2021/12/19 05:58:48;;;;;;;14.10;8.15;;;;;;;;;;4946268;29;20199;-80
2021/12/19 06:01:15;;;;;;;15.30;7.68;;;;;;;;;;4963531;28;20192;-81
2021/12/19 06:03:40;;;;;;;15.00;8.20;;;;;;;;;;4946418;29;20197;-80
2021/12/19 06:06:07;;;;;;;16.95;8.15;;;;;;;;;;4965420;28;20295;-81
2021/12/19 06:08:33;;;;;;;14.68;8.60;;;;;;;;;;4961469;29;20648;-80
2021/12/19 06:10:59;;;;;;;11.05;7.78;;;;;;;;;;4962705;28;20188;-80
2021/12/19 06:13:25;;;;;;;20.23;8.85;;;;;;;;;;4961880;28;20216;-81
2021/12/19 06:15:54;;;;;;;12.05;7.80;;;;;;;;;;4947925;29;20188;-78
2021/12/19 06:18:20;;;;;;;12.20;8.07;;;;;;;;;;4944427;29;20680;-81
2021/12/19 06:20:46;;;;;;;12.23;7.43;;;;;;;;;;4960601;28;20180;-81
2021/12/19 06:23:12;;;;;;;9.20;5.97;;;;;;;;;;4958567;29;21116;-81
2021/12/19 06:25:45;;;;;;;12.32;7.70;;;;;;;;;;4965069;29;20188;-80
2021/12/19 06:28:12;;;;;;;13.68;7.05;;;;;;;;;;4965906;29;20265;-81
2021/12/19 06:30:37;;;;;;;10.70;6.55;;;;;;;;;;4946956;29;20181;-81
2021/12/19 06:33:03;;;;;;;12.38;7.25;;;;;;;;;;4964103;28;20612;-81
2021/12/19 06:35:30;;;;;;;12.23;6.70;;;;;;;;;;4966464;29;20180;-80
2021/12/19 06:37:57;;;;;;;12.27;7.53;;;;;;;;;;4965283;28;20184;-81
2021/12/19 06:40:23;;;;;;;9.15;5.32;;;;;;;;;;4947122;29;20240;-81
2021/12/19 06:42:49;;;;;;;12.07;7.75;;;;;;;;;;4957708;28;20195;-81
2021/12/19 06:45:16;;;;;;;10.93;6.40;;;;;;;;;;4965323;29;20196;-80
2021/12/19 06:47:42;;;;;;;12.27;6.65;;;;;;;;;;4965062;29;20184;-81
2021/12/19 06:50:08;;;;;;;9.30;5.78;;;;;;;;;;4944591;29;20265;-81
2021/12/19 06:52:36;;;;;;;6.80;4.90;;;;;;;;;;4965118;28;20211;-81
2021/12/19 06:55:02;;;;;;;7.55;4.93;;;;;;;;;;4964658;29;20184;-80
2021/12/19 06:57:28;;;;;;;11.23;5.35;;;;;;;;;;4946621;29;20627;-80
2021/12/19 06:59:54;;;;;;;7.72;5.95;;;;;;;;;;4964689;28;20173;-81
2021/12/19 07:02:20;;;;;;;10.82;5.95;;;;;;;;;;4964689;29;20373;-81
2021/12/19 07:04:46;;;;;;;9.10;5.47;;;;;;;;;;4964636;28;20200;-80
2021/12/19 07:07:13;;;;;;;10.18;5.82;;;;;;;;;;4964943;28;20611;-80
2021/12/19 07:09:39;;;;;;;9.80;5.63;;;;;;;;;;4963492;29;20192;-80
2021/12/19 07:12:06;;;;;;;9.48;5.57;;;;;;;;;;4964889;29;20204;-80
2021/12/19 07:14:32;;;;;;;11.23;5.32;;;;;;;;;;4946250;29;20184;-82
2021/12/19 07:16:58;;;;;;;11.27;6.05;;;;;;;;;;4953969;28;20198;-82
2021/12/19 07:19:24;;;;;;;7.55;4.82;;;;;;;;;;4957017;28;20183;-80
2021/12/19 07:21:50;;;;;;;7.40;4.22;;;;;;;;;;4964662;29;20184;-81
2021/12/19 07:24:16;;;;;;;7.13;5.72;;;;;;;;;;4963942;28;20212;-80
2021/12/19 07:26:42;;;;;;;9.27;5.43;;;;;;;;;;4965801;29;20180;-80
2021/12/19 07:29:08;;;;;;;10.85;5.68;;;;;;;;;;4966582;28;20246;-81
2021/12/19 07:31:37;;;;;;;8.70;5.65;;;;;;;;;;4962531;28;20678;-80
2021/12/19 07:34:03;;;;;;;7.40;5.10;;;;;;;;;;4959065;29;20468;-81
2021/12/19 07:36:36;;;;;;;7.72;4.95;;;;;;;;;;4959565;29;20190;-80
2021/12/19 07:39:11;;;;;;;8.18;5.20;;;;;;;;;;4964138;29;20239;-81
2021/12/19 07:41:37;;;;;;;8.55;4.70;;;;;;;;;;4965110;29;20175;-81
2021/12/19 07:44:03;;;;;;;6.90;5.50;;;;;;;;;;4965697;28;20251;-85
2021/12/19 07:46:30;;;;;;;6.95;4.78;;;;;;;;;;4948229;28;20674;-83
2021/12/19 07:48:56;;;;;;;10.45;4.70;;;;;;;;;;4965171;28;20180;-84
2021/12/19 07:51:22;;;;;;;6.38;4.45;;;;;;;;;;4965992;28;20192;-83
2021/12/19 07:53:48;;;;;;;7.93;4.50;;;;;;;;;;4968651;28;20198;-84
2021/12/19 07:56:14;;;;;;;6.93;4.03;;;;;;;;;;4946811;29;20212;-84
2021/12/19 07:58:40;;;;;;;4.75;3.72;;;;;;;;;;4946833;29;20180;-84
2021/12/19 08:01:05;;;;;;;6.82;4.70;;;;;;;;;;4962452;29;20522;-83
2021/12/19 08:03:31;;;;;;;8.68;4.80;;;;;;;;;;4965151;28;20195;-86
2021/12/19 08:05:57;;;;;;;5.50;3.67;;;;;;;;;;4959937;28;20240;-82
2021/12/19 08:08:27;;;;;;;4.23;3.53;;;;;;;;;;4946358;29;20181;-82
2021/12/19 08:13:40;;;;;;;4.40;2.83;;;;;;;;;;4957866;29;20276;-83
2021/12/19 08:16:06;;;;;;;7.20;3.80;;;;;;;;;;4954299;29;20264;-85
2021/12/19 08:18:32;;;;;;;5.47;3.45;;;;;;;;;;4951606;28;20184;-84
2021/12/19 08:20:58;;;;;;;6.50;3.90;;;;;;;;;;4944339;28;20187;-84
2021/12/19 08:23:24;;;;;;;6.20;4.80;;;;;;;;;;4947437;29;20272;-83
2021/12/19 08:25:50;;;;;;;7.38;3.72;;;;;;;;;;4960354;28;20203;-84
2021/12/19 08:28:16;;;;;;;8.13;4.90;;;;;;;;;;4942333;28;20207;-83
2021/12/19 08:30:42;;;;;;;7.72;4.88;;;;;;;;;;4950621;29;20284;-85
2021/12/19 08:33:08;;;;;;;10.65;6.05;;;;;;;;;;4948301;28;20197;-84
2021/12/19 08:35:34;;;;;;;8.25;4.88;;;;;;;;;;4968143;29;20184;-84
2021/12/19 08:38:00;;;;;;;6.07;4.28;;;;;;;;;;4967333;29;20439;-82
2021/12/19 08:40:28;;;;;;;8.45;5.25;;;;;;;;;;4945143;29;20185;-84
2021/12/19 08:42:54;;;;;;;8.10;4.88;;;;;;;;;;4952853;29;20243;-83
2021/12/19 08:45:21;;;;;;;8.63;5.40;;;;;;;;;;4967309;28;20188;-83
2021/12/19 08:47:47;;;;;;;9.25;5.75;;;;;;;;;;4965834;29;20199;-85
2021/12/19 08:50:15;;;;;;;9.57;5.43;;;;;;;;;;4963887;29;20650;-83
2021/12/19 08:52:42;;;;;;;10.45;7.00;;;;;;;;;;4965259;28;20279;-82
2021/12/19 08:55:09;;;;;;;8.63;5.03;;;;;;;;;;4973396;28;20188;-87
2021/12/19 08:57:35;;;;;;;10.43;6.38;;;;;;;;;;4950798;29;20717;-84
2021/12/19 09:00:03;;;;;;;11.63;5.80;;;;;;;;;;4945966;28;20223;-88
2021/12/19 09:02:29;;;;;;;11.30;5.55;;;;;;;;;;4949545;29;20252;-83
2021/12/19 09:04:55;;;;;;;9.25;6.00;;;;;;;;;;4949357;29;20246;-83
2021/12/19 09:07:21;;;;;;;11.20;5.45;;;;;;;;;;4949421;29;20188;-83
2021/12/19 09:09:48;;;;;;;11.50;6.82;;;;;;;;;;4966093;28;20199;-84
2021/12/19 09:12:14;;;;;;;14.57;7.13;;;;;;;;;;4965437;28;20279;-84
2021/12/19 09:14:40;;;;;;;9.30;6.43;;;;;;;;;;4965609;29;20189;-86
2021/12/19 09:17:07;;;;;;;10.07;6.70;;;;;;;;;;4947774;29;20195;-83
2021/12/19 09:19:33;;;;;;;9.38;6.45;;;;;;;;;;4963653;28;20184;-87
2021/12/19 09:21:59;;;;;;;8.35;6.00;;;;;;;;;;4949360;29;20235;-85
2021/12/19 09:24:25;;;;;;;13.45;8.00;;;;;;;;;;4938589;28;20376;-84
2021/12/19 09:26:51;;;;;;;15.77;8.27;;;;;;;;;;4964721;28;20260;-85
2021/12/19 09:29:17;;;;;;;11.85;7.40;;;;;;;;;;4958304;29;20280;-86
2021/12/19 09:31:43;;;;;;;11.23;7.07;;;;;;;;;;4937507;29;20227;-86
2021/12/19 09:34:10;;;;;;;15.40;7.28;;;;;;;;;;4936320;29;20637;-84
2021/12/19 09:36:36;;;;;;;11.93;7.50;;;;;;;;;;4948665;29;20192;-86
2021/12/19 09:39:03;;;;;;;14.20;8.13;;;;;;;;;;4947908;28;20215;-83
2021/12/19 09:41:33;;;;;;;12.40;7.35;;;;;;;;;;4965895;29;20184;-85
2021/12/19 09:44:02;;;;;;;14.60;8.68;;;;;;;;;;4963211;28;20183;-83
2021/12/19 09:46:32;;;;;;;10.00;6.10;;;;;;;;;;4965423;28;20180;-86
2021/12/19 09:48:58;;;;;;;13.60;8.07;;;;;;;;;;4948121;29;20180;-83
2021/12/19 09:51:24;;;;;;;15.32;8.57;;;;;;;;;;4951720;28;20195;-80
2021/12/19 09:53:50;;;;;;;14.15;7.35;;;;;;;;;;4967832;28;20177;-82
2021/12/19 09:56:16;;;;;;;11.43;6.90;;;;;;;;;;4946062;29;20211;-81
2021/12/19 09:58:43;;;;;;;11.52;5.85;;;;;;;;;;4948538;29;20563;-82
2021/12/19 10:01:10;;;;;;;10.10;6.57;;;;;;;;;;4963233;29;20263;-81
2021/12/19 10:03:36;;;;;;;9.35;5.78;;;;;;;;;;4963927;29;20719;-79
2021/12/19 10:06:20;;;;;;;7.95;4.80;;;;;;;;;;4965984;28;20243;-81
2021/12/19 10:08:46;;;;;;;9.93;6.40;;;;;;;;;;4949648;29;20271;-81
2021/12/19 10:11:30;;;;;;;9.43;5.22;;;;;;;;;;4946213;29;20215;-80
2021/12/19 10:13:56;;;;;;;11.00;7.32;;;;;;;;;;4948120;29;20224;-79
2021/12/19 10:16:27;;;;;;;9.90;6.47;;;;;;;;;;4962731;28;20181;-80
2021/12/19 10:18:55;;;;;;;12.38;6.60;;;;;;;;;;4946571;29;20660;-80
2021/12/19 10:21:21;;;;;;;12.07;7.38;;;;;;;;;;4948194;29;20195;-81
2021/12/19 10:23:48;;;;;;;11.25;6.10;;;;;;;;;;4966834;29;20216;-79
2021/12/19 10:26:14;;;;;;;9.60;5.75;;;;;;;;;;4963219;29;20188;-80
2021/12/19 10:29:01;;;;;;;11.80;7.00;;;;;;;;;;4962893;28;20188;-83
2021/12/19 10:31:29;;;;;;;15.02;7.00;;;;;;;;;;4945493;29;20263;-79
2021/12/19 10:33:55;;;;;;;11.60;7.20;;;;;;;;;;4962312;28;20180;-79
2021/12/19 10:36:22;;;;;;;12.40;8.30;;;;;;;;;;4947979;29;20224;-80
2021/12/19 10:38:49;;;;;;;12.60;7.72;;;;;;;;;;4945231;29;20180;-82
2021/12/19 10:41:20;;;;;;;13.32;7.75;;;;;;;;;;4963051;28;20630;-81
2021/12/19 10:43:56;;;;;;;11.02;7.15;;;;;;;;;;4944664;29;20619;-80
2021/12/19 10:46:29;;;;;;;13.18;6.90;;;;;;;;;;4962590;29;20176;-80
2021/12/19 10:48:55;;;;;;;14.32;8.20;;;;;;;;;;4963100;29;20264;-79
2021/12/19 10:51:21;;;;;;;12.57;6.97;;;;;;;;;;4962983;29;20183;-79
2021/12/19 10:53:55;;;;;;;12.98;8.00;;;;;;;;;;4967147;29;20208;-80
2021/12/19 10:56:21;;;;;;;14.25;7.68;;;;;;;;;;4966212;29;20609;-81
2021/12/19 10:58:51;;;;;;;15.70;9.67;;;;;;;;;;4962729;28;20219;-80
2021/12/19 11:01:37;;;;;;;17.45;9.63;;;;;;;;;;4963274;28;20448;-81
2021/12/19 11:04:13;;;;;;;19.70;13.27;;;;;;;;;;4962489;29;20190;-80
2021/12/19 11:06:46;;;;;;;18.52;11.48;;;;;;;;;;4962743;29;20249;-80
2021/12/19 11:09:19;;;;;;;18.95;12.75;;;;;;;;;;4963945;29;20188;-79
2021/12/19 11:11:50;;;;;;;24.58;13.32;;;;;;;;;;4965087;29;20200;-80
2021/12/19 11:14:31;;;;;;;19.77;10.77;;;;;;;;;;4962743;29;20196;-80
2021/12/19 11:16:58;;;;;;;15.00;9.35;;;;;;;;;;4962061;28;20191;-80
2021/12/19 11:19:25;;;;;;;17.17;10.48;;;;;;;;;;4962458;28;20241;-79
2021/12/19 11:21:52;;;;;;;22.00;12.60;;;;;;;;;;4944987;29;20275;-80
2021/12/19 11:24:19;;;;;;;15.40;11.02;;;;;;;;;;4963038;29;20197;-80
2021/12/19 11:26:46;;;;;;;14.10;9.60;;;;;;;;;;4948347;29;20179;-81
2021/12/19 11:29:13;;;;;;;14.65;9.95;;;;;;;;;;4962527;29;20196;-80
2021/12/19 11:31:41;;;;;;;18.90;11.23;;;;;;;;;;4944053;29;20215;-79
2021/12/19 11:34:43;;;;;;;16.13;10.80;;;;;;;;;;4962172;28;20207;-80
2021/12/19 11:37:11;;;;;;;17.63;11.00;;;;;;;;;;4904192;29;20213;-80
2021/12/19 11:39:40;;;;;;;13.95;10.50;;;;;;;;;;4905502;29;20219;-79
2021/12/19 11:42:06;;;;;;;13.13;10.25;;;;;;;;;;4904688;29;20187;-82
2021/12/19 11:45:25;;;;;;;12.55;10.20;;;;;;;;;;4901493;29;20195;-84
2021/12/19 11:47:49;;;;;;;15.70;9.50;;;;;;;;;;4909905;29;20248;-86
2021/12/19 11:50:26;;;;;;;13.15;9.45;;;;;;;;;;4893014;29;20190;-87
2021/12/19 11:52:56;;;;;;;14.73;9.18;;;;;;;;;;4908308;29;20280;-86
2021/12/19 11:55:24;;;;;;;15.45;10.10;;;;;;;;;;4907754;29;20275;-84
2021/12/19 11:58:08;;;;;;;15.48;10.40;;;;;;;;;;4907133;29;20194;-83
2021/12/19 12:00:38;;;;;;;15.95;9.75;;;;;;;;;;4909419;29;20193;-83
2021/12/19 12:03:21;;;;;;;18.20;9.85;;;;;;;;;;4892344;29;20183;-85
2021/12/19 12:05:47;;;;;;;16.70;10.35;;;;;;;;;;4909414;29;20270;-85
2021/12/19 12:08:17;;;;;;;16.50;10.60;;;;;;;;;;4909047;29;20195;-86
2021/12/19 12:10:54;;;;;;;14.82;9.60;;;;;;;;;;4923912;29;20196;-83
2021/12/19 12:13:30;;;;;;;14.00;9.65;;;;;;;;;;4941964;29;20204;-82
2021/12/19 12:16:06;;;;;;;18.75;10.32;;;;;;;;;;4973377;28;20184;-85
2021/12/19 12:18:40;;;;;;;17.23;9.80;;;;;;;;;;4943268;29;20185;-83
2021/12/19 12:21:41;;;;;;;15.85;10.27;;;;;;;;;;4968398;28;20183;-83
2021/12/19 12:24:07;;;;;;;17.90;10.82;;;;;;;;;;4950464;28;20276;-83
2021/12/19 12:26:47;;;;;;;19.10;11.63;;;;;;;;;;4958150;29;20678;-83
2021/12/19 12:29:13;;;;;;;16.63;10.82;;;;;;;;;;4964853;29;20456;-82
2021/12/19 12:31:41;;;;;;;14.85;9.80;;;;;;;;;;4961002;29;20185;-81
2021/12/19 12:34:08;;;;;;;15.80;10.82;;;;;;;;;;4966284;29;20184;-82
2021/12/19 12:36:34;;;;;;;16.45;11.00;;;;;;;;;;4967822;29;20212;-83
2021/12/19 12:39:05;;;;;;;15.30;10.60;;;;;;;;;;4950081;28;20267;-81
2021/12/19 12:44:05;;;;;;;19.42;10.55;;;;;;;;;;4966420;28;20193;-82
2021/12/19 12:46:31;;;;;;;17.13;11.07;;;;;;;;;;4946596;29;20195;-82
2021/12/19 12:49:00;;;;;;;15.30;10.13;;;;;;;;;;4966055;28;20193;-82
2021/12/19 12:51:49;;;;;;;17.30;11.05;;;;;;;;;;4945241;29;20199;-81
2021/12/19 12:54:22;;;;;;;17.75;10.23;;;;;;;;;;4941264;29;20200;-84
2021/12/19 12:56:50;;;;;;;17.00;10.70;;;;;;;;;;4954467;28;20282;-82
2021/12/19 12:59:17;;;;;;;20.55;11.38;;;;;;;;;;4945329;28;20231;-84
2021/12/19 13:01:46;;;;;;;17.40;13.48;;;;;;;;;;4948880;29;20192;-83
2021/12/19 13:04:14;;;;;;;17.70;11.20;;;;;;;;;;4945658;29;20242;-82
2021/12/19 13:06:52;;;;;;;28.20;13.48;;;;;;;;;;4966532;29;20232;-82
2021/12/19 13:09:21;;;;;;;25.00;14.10;;;;;;;;;;4966110;28;20184;-82
2021/12/19 13:11:52;;;;;;;26.80;12.73;;;;;;;;;;4941682;29;20204;-84
2021/12/19 13:14:20;;;;;;;22.58;12.13;;;;;;;;;;4960454;28;20256;-82
2021/12/19 13:16:50;;;;;;;18.98;11.07;;;;;;;;;;4940608;29;20200;-84
2021/12/19 13:19:35;;;;;;;21.90;10.85;;;;;;;;;;4945642;29;20187;-85
2021/12/19 13:22:01;;;;;;;16.85;10.13;;;;;;;;;;4947822;29;20193;-81
2021/12/19 13:24:28;;;;;;;18.80;9.57;;;;;;;;;;4949659;29;20192;-82
2021/12/19 13:27:14;;;;;;;14.95;9.10;;;;;;;;;;4964791;28;20203;-81
2021/12/19 13:29:40;;;;;;;19.10;10.30;;;;;;;;;;4963132;29;20304;-82
2021/12/19 13:32:36;;;;;;;16.05;10.30;;;;;;;;;;4962251;29;20212;-82
2021/12/19 13:35:04;;;;;;;11.52;8.55;;;;;;;;;;4955065;28;20232;-79
2021/12/19 13:37:33;;;;;;;14.63;8.40;;;;;;;;;;4972109;28;20545;-80
2021/12/19 13:40:10;;;;;;;16.30;9.18;;;;;;;;;;4966653;28;20181;-80
2021/12/19 13:42:39;;;;;;;13.27;7.40;;;;;;;;;;4966082;28;20211;-79
2021/12/19 13:45:25;;;;;;;13.05;7.35;;;;;;;;;;4966557;28;20185;-81
2021/12/19 13:47:51;;;;;;;11.75;7.15;;;;;;;;;;4967299;29;20176;-82
2021/12/19 13:50:17;;;;;;;11.77;7.05;;;;;;;;;;4966350;29;20192;-80
2021/12/19 13:52:46;;;;;;;11.38;7.18;;;;;;;;;;4945301;29;20232;-81
2021/12/19 13:55:16;;;;;;;14.43;6.97;;;;;;;;;;4965959;29;20180;-79
2021/12/19 13:57:43;;;;;;;10.45;6.35;;;;;;;;;;4966772;28;20184;-80
2021/12/19 14:00:11;;;;;;;10.70;6.63;;;;;;;;;;4965890;28;20180;-80
2021/12/19 14:02:38;;;;;;;9.05;6.07;;;;;;;;;;4948878;29;20185;-79
2021/12/19 14:05:24;;;;;;;11.55;6.30;;;;;;;;;;4965915;29;20228;-80
2021/12/19 14:07:50;;;;;;;8.32;6.47;;;;;;;;;;4965953;28;20196;-80
2021/12/19 14:10:23;;;;;;;13.10;6.97;;;;;;;;;;4965968;28;20196;-79
2021/12/19 14:15:18;;;;;;;12.35;8.10;;;;;;;;;;4966039;28;20197;-80
2021/12/19 14:17:44;;;;;;;12.73;8.52;;;;;;;;;;4966086;29;20649;-79
2021/12/19 14:20:10;;;;;;;13.55;8.15;;;;;;;;;;4964938;29;20195;-80
2021/12/19 14:22:36;;;;;;;13.43;9.23;;;;;;;;;;4965802;28;20192;-79
2021/12/19 14:25:03;;;;;;;15.57;11.18;;;;;;;;;;4945721;29;20199;-79
2021/12/19 14:27:39;;;;;;;17.60;10.57;;;;;;;;;;4947916;29;20185;-79
2021/12/19 14:30:09;;;;;;;16.25;10.48;;;;;;;;;;4948399;28;20176;-80
2021/12/19 14:32:36;;;;;;;20.80;11.80;;;;;;;;;;4964647;29;20208;-80
2021/12/19 14:35:11;;;;;;;17.83;10.20;;;;;;;;;;4964620;29;20192;-81
2021/12/19 14:37:38;;;;;;;12.55;8.15;;;;;;;;;;4945528;29;20202;-79
2021/12/19 14:40:14;;;;;;;11.88;6.60;;;;;;;;;;4965310;28;20184;-80
2021/12/19 14:42:45;;;;;;;13.30;7.70;;;;;;;;;;4964976;29;20184;-80
2021/12/19 14:45:17;;;;;;;12.70;8.77;;;;;;;;;;4948428;29;20545;-80
2021/12/19 14:47:45;;;;;;;13.27;8.75;;;;;;;;;;4965720;29;20398;-81
2021/12/19 14:50:11;;;;;;;13.07;7.22;;;;;;;;;;4964826;28;20184;-80
2021/12/19 14:52:37;;;;;;;14.75;9.80;;;;;;;;;;4945053;29;20212;-80
2021/12/19 14:55:14;;;;;;;13.73;8.93;;;;;;;;;;4964627;28;20685;-81
2021/12/19 14:57:40;;;;;;;11.80;8.77;;;;;;;;;;4965255;28;20188;-80
2021/12/19 15:00:08;;;;;;;15.55;9.43;;;;;;;;;;4965826;28;20240;-80
2021/12/19 15:02:34;;;;;;;10.90;7.13;;;;;;;;;;4963915;29;20184;-79
2021/12/19 15:05:00;;;;;;;13.82;8.98;;;;;;;;;;4944139;29;20263;-79
2021/12/19 15:07:26;;;;;;;13.65;7.70;;;;;;;;;;4965483;29;20255;-79
2021/12/19 15:09:53;;;;;;;11.65;8.40;;;;;;;;;;4965253;28;20184;-80
2021/12/19 15:12:19;;;;;;;12.85;8.48;;;;;;;;;;4964862;29;20215;-79
2021/12/19 15:14:45;;;;;;;15.38;10.82;;;;;;;;;;4965332;29;20183;-79
2021/12/19 15:17:11;;;;;;;16.40;10.95;;;;;;;;;;4944231;29;20204;-80
2021/12/19 15:19:37;;;;;;;11.10;8.60;;;;;;;;;;4943937;29;20185;-81
2021/12/19 15:22:03;;;;;;;12.45;9.40;;;;;;;;;;4965062;29;20211;-80
2021/12/19 15:24:29;;;;;;;15.68;12.70;;;;;;;;;;4964818;29;20188;-82
2021/12/19 15:26:55;;;;;;;15.02;9.93;;;;;;;;;;4964949;29;20183;-80
2021/12/19 15:29:21;;;;;;;16.55;9.07;;;;;;;;;;4948363;29;20531;-81
2021/12/19 15:31:50;;;;;;;15.20;8.52;;;;;;;;;;4964557;28;20189;-80
2021/12/19 15:34:16;;;;;;;12.98;9.27;;;;;;;;;;4963683;28;20191;-80
2021/12/19 15:36:42;;;;;;;16.73;9.07;;;;;;;;;;4944613;29;20185;-81
2021/12/19 15:39:08;;;;;;;15.52;9.05;;;;;;;;;;4964513;29;20172;-80
2021/12/19 15:41:35;;;;;;;15.23;8.80;;;;;;;;;;4965958;29;20187;-81
2021/12/19 15:44:01;;;;;;;12.00;6.65;;;;;;;;;;4964213;28;20267;-79
2021/12/19 15:46:27;;;;;;;12.98;6.95;;;;;;;;;;4964035;28;20189;-80
2021/12/19 15:48:54;;;;;;;15.52;8.27;;;;;;;;;;4963994;28;20216;-81
2021/12/19 15:51:20;;;;;;;11.57;6.88;;;;;;;;;;4964236;29;20256;-79